createdAt,value
2022-09-03T00:02:29.282Z,0.30
2022-09-03T00:05:27.280Z,0.35
2022-09-03T00:08:27.423Z,0.40
2022-09-03T00:11:22.121Z,0.30
2022-09-03T00:14:15.634Z,0.30
2022-09-03T00:16:45.607Z,0.30
2022-09-03T00:19:17.359Z,0.30
2022-09-03T00:21:52.484Z,0.38
2022-09-03T00:24:23.084Z,0.30
2022-09-03T00:26:57.558Z,0.30
2022-09-03T00:29:41.596Z,0.40
2022-09-03T00:32:17.069Z,0.30
2022-09-03T00:34:49.215Z,0.40
2022-09-03T00:37:16.620Z,0.30
2022-09-03T00:39:44.285Z,0.20
2022-09-03T00:42:39.021Z,0.30
2022-09-03T00:45:55.177Z,0.30
2022-09-03T00:48:31.484Z,0.28
2022-09-03T00:51:10.859Z,0.30
2022-09-03T00:53:59.205Z,0.30
2022-09-03T00:56:41.112Z,0.20
2022-09-03T00:59:36.071Z,0.40
2022-09-03T01:02:18.297Z,0.30
2022-09-03T01:05:11.284Z,0.17
2022-09-03T01:08:11.832Z,0.30
2022-09-03T01:11:20.395Z,0.25
2022-09-03T01:13:59.175Z,0.28
2022-09-03T01:16:51.686Z,0.30
2022-09-03T01:19:48.651Z,0.30
2022-09-03T01:22:43.694Z,0.20
2022-09-03T01:25:17.612Z,0.17
2022-09-03T01:27:50.429Z,0.30
2022-09-03T01:30:24.111Z,0.30
2022-09-03T01:33:11.866Z,0.30
2022-09-03T01:35:43.758Z,0.30
2022-09-03T01:38:16.731Z,0.30
2022-09-03T01:40:49.529Z,0.30
2022-09-03T01:43:45.516Z,0.30
2022-09-03T01:46:42.473Z,0.30
2022-09-03T01:49:22.721Z,0.20
2022-09-03T01:52:14.161Z,0.30
2022-09-03T01:54:50.984Z,0.40
2022-09-03T01:57:56.272Z,0.40
2022-09-03T02:00:24.120Z,0.20
2022-09-03T02:02:52.524Z,0.30
2022-09-03T02:05:24.746Z,0.38
2022-09-03T02:08:11.801Z,0.20
2022-09-03T02:10:43.947Z,0.30
2022-09-03T02:13:20.601Z,0.30
2022-09-03T02:15:50.561Z,0.30
2022-09-03T02:18:21.098Z,0.40
2022-09-03T02:20:49.877Z,0.32
2022-09-03T02:23:17.155Z,0.20
2022-09-03T02:25:48.342Z,0.40
2022-09-03T02:28:23.230Z,0.25
2022-09-03T02:30:50.965Z,0.40
2022-09-03T02:33:17.933Z,0.40
2022-09-03T02:35:45.519Z,0.22
2022-09-03T02:38:14.793Z,0.32
2022-09-03T02:40:41.602Z,0.20
2022-09-03T02:43:14.857Z,0.30
2022-09-03T02:45:48.518Z,0.32
2022-09-03T02:48:21.677Z,0.40
2022-09-03T02:50:48.597Z,0.30
2022-09-03T02:53:15.919Z,0.30
2022-09-03T02:55:42.890Z,0.25
2022-09-03T02:58:09.734Z,0.28
2022-09-03T03:00:37.335Z,0.30
2022-09-03T03:03:05.850Z,0.20
2022-09-03T03:05:55.507Z,0.40
2022-09-03T03:08:26.068Z,0.32
2022-09-03T03:10:54.244Z,0.40
2022-09-03T03:13:21.064Z,0.40
2022-09-03T03:15:48.970Z,0.30
2022-09-03T03:18:17.506Z,0.30
2022-09-03T03:20:44.642Z,0.30
2022-09-03T03:23:11.488Z,0.35
2022-09-03T03:25:39.748Z,0.30
2022-09-03T03:28:07.797Z,0.20
2022-09-03T03:30:38.564Z,0.30
2022-09-03T03:33:09.744Z,0.40
2022-09-03T03:35:37.273Z,0.30
2022-09-03T03:38:04.779Z,0.38
2022-09-03T03:40:31.716Z,0.30
2022-09-03T03:42:59.158Z,0.20
2022-09-03T03:45:26.232Z,0.30
2022-09-03T03:47:57.157Z,0.30
2022-09-03T03:50:24.016Z,0.32
2022-09-03T03:52:51.010Z,0.30
2022-09-03T03:55:17.868Z,0.32
2022-09-03T03:57:45.544Z,0.35
2022-09-03T04:00:13.137Z,0.40
2022-09-03T04:02:39.947Z,0.40
2022-09-03T04:05:07.243Z,0.40
2022-09-03T04:07:34.923Z,0.30
2022-09-03T04:10:01.803Z,0.30
2022-09-03T04:12:28.711Z,0.40
2022-09-03T04:14:55.483Z,0.40
2022-09-03T04:17:25.254Z,0.30
2022-09-03T04:19:52.464Z,0.28
2022-09-03T04:22:20.744Z,0.30
2022-09-03T04:24:47.706Z,0.30
2022-09-03T04:27:14.629Z,0.30
2022-09-03T04:29:41.574Z,0.15
2022-09-03T04:32:27.112Z,0.30
2022-09-03T04:34:53.953Z,0.22
2022-09-03T04:37:20.764Z,0.30
2022-09-03T04:39:47.809Z,0.30
2022-09-03T04:42:14.694Z,0.30
2022-09-03T04:44:41.614Z,0.20
2022-09-03T04:47:08.669Z,0.20
2022-09-03T04:49:35.800Z,0.38
2022-09-03T04:52:03.576Z,0.40
2022-09-03T04:54:30.441Z,0.20
2022-09-03T04:56:57.351Z,0.20
2022-09-03T04:59:24.253Z,0.30
2022-09-03T05:01:52.829Z,0.20
2022-09-03T05:04:20.956Z,0.20
2022-09-03T05:06:48.026Z,0.25
2022-09-03T05:09:15.146Z,0.20
2022-09-03T05:11:41.968Z,0.30
2022-09-03T05:14:12.586Z,0.30
2022-09-03T05:16:39.799Z,0.38
2022-09-03T05:19:08.152Z,0.20
2022-09-03T05:21:36.205Z,0.20
2022-09-03T05:24:04.160Z,0.20
2022-09-03T05:26:34.287Z,0.28
2022-09-03T05:29:07.605Z,0.30
2022-09-03T05:31:36.951Z,0.20
2022-09-03T05:34:05.447Z,0.30
2022-09-03T05:36:37.465Z,0.20
2022-09-03T05:39:05.970Z,0.30
2022-09-03T05:41:34.248Z,0.30
2022-09-03T05:44:02.168Z,0.20
2022-09-03T05:46:34.432Z,0.20
2022-09-03T05:49:03.546Z,0.10
2022-09-03T05:51:30.912Z,0.20
2022-09-03T05:53:58.511Z,0.30
2022-09-03T05:56:27.893Z,0.20
2022-09-03T05:58:57.695Z,0.30
2022-09-03T06:01:27.096Z,0.30
2022-09-03T06:04:08.680Z,0.47
2022-09-03T06:06:38.044Z,0.30
2022-09-03T06:09:08.588Z,0.20
2022-09-03T06:11:37.629Z,0.40
2022-09-03T06:14:08.571Z,0.43
2022-09-03T06:16:38.971Z,0.40
2022-09-03T06:19:14.017Z,0.38
2022-09-03T06:21:43.281Z,0.45
2022-09-03T06:24:19.042Z,0.35
2022-09-03T06:26:47.169Z,0.38
2022-09-03T06:29:14.614Z,0.40
2022-09-03T06:31:41.920Z,0.40
2022-09-03T06:34:08.765Z,0.30
2022-09-03T06:36:35.595Z,0.30
2022-09-03T06:39:02.659Z,0.32
2022-09-03T06:41:35.557Z,0.50
2022-09-03T06:44:05.544Z,0.38
2022-09-03T06:46:35.086Z,0.20
2022-09-03T06:49:02.793Z,0.47
2022-09-03T06:51:31.404Z,0.40
2022-09-03T06:54:03.913Z,0.40
2022-09-03T06:56:37.337Z,0.40
2022-09-03T06:59:11.656Z,0.30
2022-09-03T07:01:41.148Z,0.30
2022-09-03T07:04:12.991Z,0.38
2022-09-03T07:06:42.621Z,0.40
2022-09-03T07:09:11.762Z,0.30
2022-09-03T07:11:46.683Z,0.30
2022-09-03T07:14:15.062Z,0.30
2022-09-03T07:16:43.258Z,0.50
2022-09-03T07:19:10.476Z,0.30
2022-09-03T07:21:37.827Z,0.40
2022-09-03T07:24:05.970Z,0.30
2022-09-03T07:26:40.913Z,0.30
2022-09-03T07:29:08.290Z,0.40
2022-09-03T07:31:39.103Z,0.40
2022-09-03T07:34:09.975Z,0.32
2022-09-03T07:36:51.063Z,0.40
2022-09-03T07:39:18.579Z,0.30
2022-09-03T07:41:46.310Z,0.50
2022-09-03T07:44:15.440Z,0.30
2022-09-03T07:46:43.726Z,0.30
2022-09-03T07:49:11.017Z,0.20
2022-09-03T07:51:39.479Z,0.40
2022-09-03T07:54:10.062Z,0.30
2022-09-03T07:56:38.126Z,0.30
2022-09-03T07:59:05.663Z,0.30
2022-09-03T08:01:33.711Z,0.32
2022-09-03T08:04:01.918Z,0.30
2022-09-03T08:06:30.683Z,0.40
2022-09-03T08:09:05.241Z,0.43
2022-09-03T08:11:35.174Z,0.30
2022-09-03T08:14:07.744Z,0.40
2022-09-03T08:16:40.456Z,0.40
2022-09-03T08:19:07.654Z,0.45
2022-09-03T08:21:35.221Z,0.40
2022-09-03T08:24:02.698Z,0.40
2022-09-03T08:26:42.010Z,0.47
2022-09-03T08:29:09.441Z,0.40
2022-09-03T08:31:36.817Z,0.30
2022-09-03T08:34:07.317Z,0.40
2022-09-03T08:36:36.636Z,0.30
2022-09-03T08:39:09.787Z,0.70
2022-09-03T08:42:10.569Z,0.50
2022-09-03T08:44:49.445Z,0.65
2022-09-03T08:47:43.287Z,0.60
2022-09-03T08:50:29.030Z,0.70
2022-09-03T08:53:02.297Z,0.60
2022-09-03T08:55:34.222Z,0.43
2022-09-03T08:58:10.452Z,0.52
2022-09-03T09:01:01.731Z,0.50
2022-09-03T09:03:35.410Z,0.43
2022-09-03T09:06:27.201Z,0.43
2022-09-03T09:09:02.859Z,0.60
2022-09-03T09:11:48.830Z,0.50
2022-09-03T09:14:52.853Z,0.52
2022-09-03T09:17:51.254Z,0.50
2022-09-03T09:20:52.596Z,0.50
2022-09-03T09:23:31.806Z,0.55
2022-09-03T09:26:03.000Z,0.60
2022-09-03T09:28:37.884Z,0.40
2022-09-03T09:31:07.861Z,0.60
2022-09-03T09:33:35.518Z,0.40
2022-09-03T09:36:06.302Z,0.32
2022-09-03T09:38:38.063Z,0.40
2022-09-03T09:41:20.147Z,0.50
2022-09-03T09:43:48.221Z,0.50
2022-09-03T09:46:28.128Z,0.38
2022-09-03T09:48:57.265Z,0.70
2022-09-03T09:51:26.514Z,0.52
2022-09-03T09:54:14.700Z,0.43
2022-09-03T09:56:44.614Z,0.70
2022-09-03T09:59:12.970Z,0.70
2022-09-03T10:01:47.547Z,0.50
2022-09-03T10:04:33.265Z,0.55
2022-09-03T10:07:15.721Z,0.55
2022-09-03T10:09:42.554Z,0.60
2022-09-03T10:12:26.130Z,0.60
2022-09-03T10:15:13.140Z,0.50
2022-09-03T10:17:58.354Z,0.50
2022-09-03T10:20:33.846Z,0.60
2022-09-03T10:23:23.098Z,0.50
2022-09-03T10:26:15.188Z,0.77
2022-09-03T10:28:43.151Z,0.50
2022-09-03T10:31:33.356Z,0.70
2022-09-03T10:34:42.733Z,1.08
2022-09-03T10:37:28.241Z,0.82
2022-09-03T10:40:14.228Z,1.10
2022-09-03T10:42:46.526Z,1.10
2022-09-03T10:45:22.267Z,0.90
2022-09-03T10:48:16.262Z,2.10
2022-09-03T10:51:14.034Z,1.33
2022-09-03T10:53:43.595Z,1.25
2022-09-03T10:56:25.656Z,1.60
2022-09-03T10:58:58.213Z,1.90
2022-09-03T11:01:28.060Z,1.40
2022-09-03T11:04:25.286Z,1.00
2022-09-03T11:07:02.287Z,0.82
2022-09-03T11:09:32.095Z,1.00
2022-09-03T11:12:26.771Z,1.45
2022-09-03T11:15:04.236Z,1.00
2022-09-03T11:17:40.101Z,0.70
2022-09-03T11:20:24.370Z,0.60
2022-09-03T11:22:55.849Z,0.50
2022-09-03T11:25:28.688Z,0.65
2022-09-03T11:28:29.063Z,0.60
2022-09-03T11:31:22.121Z,0.50
2022-09-03T11:33:55.108Z,0.50
2022-09-03T11:36:38.763Z,0.68
2022-09-03T11:39:33.422Z,0.60
2022-09-03T11:42:08.236Z,0.57
2022-09-03T11:44:51.112Z,0.50
2022-09-03T11:47:37.947Z,0.50
2022-09-03T11:50:09.975Z,0.50
2022-09-03T11:52:40.571Z,0.50
2022-09-03T11:55:08.477Z,0.70
2022-09-03T11:57:45.616Z,0.50
2022-09-03T12:00:21.599Z,0.60
2022-09-03T12:03:15.383Z,0.70
2022-09-03T12:06:01.299Z,0.60
2022-09-03T12:08:56.227Z,0.60
2022-09-03T12:11:41.134Z,0.70
2022-09-03T12:14:19.743Z,0.57
2022-09-03T12:17:01.753Z,0.70
2022-09-03T12:19:37.429Z,0.70
2022-09-03T12:22:05.494Z,0.80
2022-09-03T12:24:37.905Z,0.60
2022-09-03T12:27:05.789Z,0.80
2022-09-03T12:29:32.811Z,0.90
2022-09-03T12:32:09.156Z,0.80
2022-09-03T12:34:36.007Z,0.88
2022-09-03T12:37:02.982Z,0.82
2022-09-03T12:42:26.032Z,0.70
2022-09-03T12:44:53.516Z,0.90
2022-09-03T12:47:38.792Z,0.65
2022-09-03T12:50:19.725Z,0.63
2022-09-03T12:52:49.530Z,0.70
2022-09-03T12:55:27.394Z,0.70
2022-09-03T12:58:17.118Z,0.65
2022-09-03T13:01:16.165Z,0.85
2022-09-03T13:03:46.230Z,0.75
2022-09-03T13:06:17.270Z,0.90
2022-09-03T13:08:51.769Z,0.90
2022-09-03T13:11:22.464Z,0.90
2022-09-03T13:14:11.417Z,1.02
2022-09-03T13:16:38.309Z,0.80
2022-09-03T13:19:27.271Z,1.00
2022-09-03T13:21:59.814Z,0.80
2022-09-03T13:24:54.230Z,0.70
2022-09-03T13:27:42.399Z,0.90
2022-09-03T13:30:31.079Z,0.70
2022-09-03T13:33:23.835Z,0.70
2022-09-03T13:36:21.629Z,0.90
2022-09-03T13:39:06.454Z,1.00
2022-09-03T13:41:47.464Z,0.90
2022-09-03T13:44:33.045Z,0.70
2022-09-03T13:47:13.265Z,0.77
2022-09-03T13:50:08.115Z,0.68
2022-09-03T13:53:00.864Z,0.60
2022-09-03T13:55:36.835Z,0.98
2022-09-03T13:58:22.524Z,0.95
2022-09-03T14:00:58.535Z,0.98
2022-09-03T14:03:36.249Z,0.80
2022-09-03T14:06:23.268Z,0.80
2022-09-03T14:09:02.397Z,0.60
2022-09-03T14:11:35.633Z,0.60
2022-09-03T14:14:14.242Z,0.68
2022-09-03T14:17:06.391Z,0.55
2022-09-03T14:19:49.430Z,0.55
2022-09-03T14:22:25.522Z,0.70
2022-09-03T14:25:25.900Z,0.80
2022-09-03T14:27:54.740Z,0.57
2022-09-03T14:30:38.710Z,0.80
2022-09-03T14:33:05.653Z,0.75
2022-09-03T14:35:39.174Z,0.60
2022-09-03T14:38:42.207Z,0.80
2022-09-03T14:41:16.906Z,0.70
2022-09-03T14:44:08.654Z,0.70
2022-09-03T14:47:00.294Z,0.90
2022-09-03T14:49:39.502Z,0.88
2022-09-03T14:52:09.512Z,0.80
2022-09-03T14:55:01.051Z,0.90
2022-09-03T14:57:49.064Z,0.85
2022-09-03T15:00:19.749Z,1.10
2022-09-03T15:03:05.495Z,0.80
2022-09-03T15:05:49.954Z,0.60
2022-09-03T15:08:49.473Z,0.68
2022-09-03T15:11:23.662Z,0.68
2022-09-03T15:14:14.807Z,0.70
2022-09-03T15:16:45.030Z,0.77
2022-09-03T15:19:33.540Z,0.80
2022-09-03T15:22:30.448Z,0.70
2022-09-03T15:25:08.166Z,0.90
2022-09-03T15:27:47.921Z,0.70
2022-09-03T15:30:20.436Z,0.65
2022-09-03T15:33:09.626Z,0.50
2022-09-03T15:35:40.274Z,0.20
2022-09-03T15:38:30.299Z,0.40
2022-09-03T15:41:01.146Z,0.30
2022-09-03T15:43:32.343Z,0.30
2022-09-03T15:46:11.557Z,0.20
2022-09-03T15:48:50.737Z,0.30
2022-09-03T15:51:20.824Z,0.32
2022-09-03T15:54:12.704Z,0.10
2022-09-03T15:57:00.482Z,0.20
2022-09-03T15:59:50.250Z,0.20
2022-09-03T16:02:26.575Z,0.30
2022-09-03T16:04:56.918Z,0.25
2022-09-03T16:07:29.232Z,0.20
2022-09-03T16:10:51.077Z,0.20
2022-09-03T16:13:39.784Z,0.20
2022-09-03T16:16:11.242Z,0.30
2022-09-03T16:18:54.030Z,0.30
2022-09-03T16:21:42.840Z,0.13
2022-09-03T16:24:41.371Z,0.17
2022-09-03T16:27:14.889Z,0.10
2022-09-03T16:29:41.797Z,0.20
2022-09-03T16:32:27.103Z,0.15
2022-09-03T16:34:57.043Z,0.28
2022-09-03T16:37:48.311Z,0.30
2022-09-03T16:40:26.921Z,0.20
2022-09-03T16:43:36.820Z,0.20
2022-09-03T16:46:27.702Z,0.30
2022-09-03T16:49:07.554Z,0.20
2022-09-03T16:51:45.889Z,0.28
2022-09-03T16:54:19.779Z,0.20
2022-09-03T16:57:08.121Z,0.20
2022-09-03T16:59:59.826Z,0.32
2022-09-03T17:02:57.586Z,0.15
2022-09-03T17:06:01.959Z,0.20
2022-09-03T17:08:31.888Z,0.30
2022-09-03T17:11:35.619Z,0.30
2022-09-03T17:14:08.461Z,0.20
2022-09-03T17:16:59.139Z,0.30
2022-09-03T17:19:46.265Z,0.28
2022-09-03T17:22:40.845Z,0.20
2022-09-03T17:25:35.577Z,0.22
2022-09-03T17:28:24.968Z,0.20
2022-09-03T17:30:57.308Z,0.20
2022-09-03T17:33:35.989Z,0.20
2022-09-03T17:36:08.297Z,0.30
2022-09-03T17:38:43.679Z,0.20
2022-09-03T17:41:36.627Z,0.30
2022-09-03T17:44:27.831Z,0.10
2022-09-03T17:47:26.734Z,0.20
2022-09-03T17:50:02.335Z,0.20
2022-09-03T17:52:52.517Z,0.20
2022-09-03T17:55:41.926Z,0.20
2022-09-03T17:58:31.237Z,0.20
2022-09-03T18:01:10.288Z,0.20
2022-09-03T18:03:52.755Z,0.20
2022-09-03T18:06:55.582Z,0.20
2022-09-03T18:09:39.964Z,0.20
2022-09-03T18:12:13.015Z,0.20
2022-09-03T18:15:07.568Z,0.20
2022-09-03T18:17:41.569Z,0.10
2022-09-03T18:20:29.391Z,0.20
2022-09-03T18:23:26.015Z,0.30
2022-09-03T18:26:22.363Z,0.28
2022-09-03T18:29:23.939Z,0.22
2022-09-03T18:32:09.205Z,0.20
2022-09-03T18:34:56.341Z,0.28
2022-09-03T18:37:44.222Z,0.40
2022-09-03T18:40:38.307Z,0.20
2022-09-03T18:44:05.358Z,0.30
2022-09-03T18:50:36.920Z,0.30
2022-09-03T18:53:36.708Z,0.10
2022-09-03T18:56:44.608Z,0.10
2022-09-03T18:59:55.139Z,0.20
2022-09-03T19:03:19.089Z,0.30
2022-09-03T19:06:22.986Z,0.20
2022-09-03T19:09:14.322Z,0.22
2022-09-03T19:12:14.352Z,0.50
2022-09-03T19:15:21.697Z,0.28
2022-09-03T19:18:19.144Z,0.40
2022-09-03T19:21:17.438Z,0.35
2022-09-03T19:24:02.878Z,0.30
2022-09-03T19:27:47.398Z,0.30
2022-09-03T19:30:26.549Z,0.40
2022-09-03T19:33:30.518Z,0.20
2022-09-03T19:36:20.911Z,0.30
2022-09-03T19:39:29.735Z,0.30
2022-09-03T19:42:45.572Z,0.30
2022-09-03T19:45:36.679Z,0.30
2022-09-03T19:48:28.417Z,0.20
2022-09-03T19:51:40.860Z,0.30
2022-09-03T19:54:27.955Z,0.20
2022-09-03T19:57:16.501Z,0.20
2022-09-03T20:00:06.922Z,0.20
2022-09-03T20:02:52.740Z,0.20
2022-09-03T20:05:42.563Z,0.10
2022-09-03T20:08:31.861Z,0.10
2022-09-03T20:11:00.647Z,0.20
2022-09-03T20:13:28.054Z,0.30
2022-09-03T20:16:09.265Z,0.30
2022-09-03T20:19:07.403Z,0.28
2022-09-03T20:21:43.452Z,0.20
2022-09-03T20:24:29.157Z,0.30
2022-09-03T20:27:14.880Z,0.20
2022-09-03T20:30:00.172Z,0.20
2022-09-03T20:32:55.868Z,0.20
2022-09-03T20:35:35.487Z,0.15
2022-09-03T20:38:21.955Z,0.17
2022-09-03T20:40:54.634Z,0.20
2022-09-03T20:43:35.828Z,0.30
2022-09-03T20:46:13.695Z,0.20
2022-09-03T20:48:43.398Z,0.20
2022-09-03T20:51:22.776Z,0.30
2022-09-03T20:54:11.376Z,0.30
2022-09-03T20:56:57.695Z,0.30
2022-09-03T20:59:53.427Z,0.10
2022-09-03T21:02:34.128Z,0.22
2022-09-03T21:05:12.903Z,0.20
2022-09-03T21:07:57.826Z,0.30
2022-09-03T21:10:34.056Z,0.30
2022-09-03T21:13:06.547Z,0.32
2022-09-03T21:15:44.564Z,0.20
2022-09-03T21:18:27.291Z,0.20
2022-09-03T21:21:15.657Z,0.30
2022-09-03T21:23:46.815Z,0.30
2022-09-03T21:26:34.951Z,0.30
2022-09-03T21:29:26.231Z,0.20
2022-09-03T21:32:16.893Z,0.30
2022-09-03T21:35:06.501Z,0.20
2022-09-03T21:37:39.018Z,0.30
2022-09-03T21:40:09.452Z,0.28
2022-09-03T21:43:05.439Z,0.20
2022-09-03T21:45:50.198Z,0.20
2022-09-03T21:48:35.364Z,0.20
2022-09-03T21:51:18.534Z,0.50
2022-09-03T21:53:51.834Z,0.20
2022-09-03T21:56:43.174Z,0.28
2022-09-03T21:59:51.572Z,0.20
2022-09-03T22:02:21.859Z,0.22
2022-09-03T22:04:50.458Z,0.28
2022-09-03T22:07:23.092Z,0.30
2022-09-03T22:10:27.953Z,0.20
2022-09-03T22:13:33.576Z,0.20
2022-09-03T22:16:44.111Z,0.20
2022-09-03T22:19:11.039Z,0.20
2022-09-03T22:21:59.963Z,0.30
2022-09-03T22:24:39.233Z,0.20
2022-09-03T22:27:09.748Z,0.20
2022-09-03T22:29:49.194Z,0.13
2022-09-03T22:32:25.081Z,0.20
2022-09-03T22:35:25.415Z,0.30
2022-09-03T22:37:52.205Z,0.30
2022-09-03T22:40:26.294Z,0.32
2022-09-03T22:43:21.179Z,0.30
2022-09-03T22:46:12.109Z,0.22
2022-09-03T22:49:07.018Z,0.30
2022-09-03T22:51:47.174Z,0.25
2022-09-03T22:54:54.065Z,0.20
2022-09-03T22:57:24.391Z,0.20
2022-09-03T23:00:00.535Z,0.30
2022-09-03T23:02:30.247Z,0.25
2022-09-03T23:05:29.400Z,0.20
2022-09-03T23:08:13.186Z,0.30
2022-09-03T23:11:12.809Z,0.30
2022-09-03T23:13:47.883Z,0.20
2022-09-03T23:16:28.979Z,0.20
2022-09-03T23:18:57.869Z,0.30
2022-09-03T23:21:40.829Z,0.20
2022-09-03T23:24:24.929Z,0.20
2022-09-03T23:26:53.667Z,0.30
2022-09-03T23:29:41.576Z,0.20
2022-09-03T23:32:11.699Z,0.30
2022-09-03T23:34:40.715Z,0.40
2022-09-03T23:37:34.507Z,0.40
2022-09-03T23:40:38.874Z,0.30
2022-09-03T23:43:27.398Z,0.32
2022-09-03T23:46:31.898Z,0.30
2022-09-03T23:49:16.856Z,0.30
2022-09-03T23:52:02.396Z,0.40
2022-09-03T23:54:50.712Z,0.38
2022-09-03T23:57:24.864Z,0.20
